Time;durP1;ratioP1;P1;durP2;ratioP2;P2;SDS_P1;SDS_P2;PMS_P1;PMS_P2;Temp;Humidity;BMP_temperature;BMP_pressure;BME280_temperature;BME280_humidity;BME280_pressure;Samples;Min_cycle;Max_cycle;Signal;HPM_P1;HPM_P2
2023/04/05 00:00:54;;;;;;;9.75;7.97;;;;;;;;;;5074854;28;20044;-60
2023/04/05 00:03:21;;;;;;;12.40;8.77;;;;;;;;;;5074390;28;20087;-60
2023/04/05 00:05:48;;;;;;;10.75;9.20;;;;;;;;;;5074528;28;20052;-61
2023/04/05 00:08:25;;;;;;;11.02;8.75;;;;;;;;;;5074545;28;20129;-61
2023/04/05 00:10:52;;;;;;;11.67;8.17;;;;;;;;;;5074459;28;20041;-60
2023/04/05 00:13:19;;;;;;;11.68;8.82;;;;;;;;;;5074642;28;20048;-61
2023/04/05 00:15:48;;;;;;;11.48;9.07;;;;;;;;;;5074519;28;20087;-60
2023/04/05 00:18:23;;;;;;;10.75;8.43;;;;;;;;;;5074505;28;20055;-60
2023/04/05 00:20:50;;;;;;;11.88;8.50;;;;;;;;;;5074541;28;20126;-61
2023/04/05 00:23:16;;;;;;;13.73;9.45;;;;;;;;;;5074359;28;20088;-60
2023/04/05 00:25:43;;;;;;;12.60;9.57;;;;;;;;;;5074409;28;20051;-61
2023/04/05 00:28:10;;;;;;;13.13;10.63;;;;;;;;;;5074260;28;20064;-61
2023/04/05 00:30:36;;;;;;;17.67;10.27;;;;;;;;;;5074263;28;20047;-60
2023/04/05 00:33:03;;;;;;;13.63;9.98;;;;;;;;;;5074069;28;20404;-60
2023/04/05 00:35:29;;;;;;;12.45;10.13;;;;;;;;;;5074010;28;20127;-61
2023/04/05 00:37:56;;;;;;;12.95;10.43;;;;;;;;;;5074175;28;20099;-61
2023/04/05 00:40:23;;;;;;;13.23;10.25;;;;;;;;;;5074060;28;20052;-60
2023/04/05 00:42:49;;;;;;;15.25;10.18;;;;;;;;;;5073845;28;20552;-60
2023/04/05 00:45:16;;;;;;;14.85;11.10;;;;;;;;;;5073703;28;20056;-60
2023/04/05 00:47:43;;;;;;;16.70;10.20;;;;;;;;;;5073823;28;20403;-60
2023/04/05 00:50:12;;;;;;;12.85;9.60;;;;;;;;;;5073657;28;20114;-60
2023/04/05 00:52:42;;;;;;;15.88;10.65;;;;;;;;;;5073723;28;20076;-60
2023/04/05 00:55:09;;;;;;;12.85;9.15;;;;;;;;;;5074067;28;20087;-60
2023/04/05 00:57:38;;;;;;;12.10;10.70;;;;;;;;;;5073685;28;20048;-61
2023/04/05 01:00:10;;;;;;;18.63;14.40;;;;;;;;;;5073441;28;20567;-60
2023/04/05 01:02:44;;;;;;;15.77;11.85;;;;;;;;;;5073547;28;20090;-60
2023/04/05 01:05:29;;;;;;;15.18;10.77;;;;;;;;;;5073542;28;20127;-60
2023/04/05 01:08:02;;;;;;;12.30;9.88;;;;;;;;;;5073320;28;20045;-60
2023/04/05 01:10:32;;;;;;;16.85;9.85;;;;;;;;;;5073244;28;20052;-61
2023/04/05 01:12:58;;;;;;;12.10;9.65;;;;;;;;;;5055658;28;20045;-61
2023/04/05 01:15:25;;;;;;;12.30;9.50;;;;;;;;;;5073218;28;20055;-61
2023/04/05 01:17:53;;;;;;;11.95;9.00;;;;;;;;;;5073643;28;20125;-61
2023/04/05 01:20:19;;;;;;;;;;;;;;;;;;5073597;28;20056;-61
2023/04/05 01:23:05;;;;;;;13.63;9.70;;;;;;;;;;5073118;28;19920;-60
2023/04/05 01:25:50;;;;;;;16.42;10.85;;;;;;;;;;5073212;28;20166;-60
2023/04/05 01:28:35;;;;;;;12.00;10.15;;;;;;;;;;5073019;28;20059;-60
2023/04/05 01:31:17;;;;;;;13.63;10.10;;;;;;;;;;5072795;28;20044;-61
2023/04/05 01:33:48;;;;;;;12.55;10.30;;;;;;;;;;5072958;28;20041;-60
2023/04/05 01:36:20;;;;;;;13.80;10.18;;;;;;;;;;5073167;28;20055;-61
2023/04/05 01:38:48;;;;;;;12.40;10.70;;;;;;;;;;5066079;28;20048;-60
2023/04/05 01:41:15;;;;;;;12.73;10.43;;;;;;;;;;5072602;28;20443;-61
2023/04/05 01:43:41;;;;;;;12.32;9.75;;;;;;;;;;5072711;28;20053;-61
2023/04/05 01:46:07;;;;;;;15.02;10.93;;;;;;;;;;5072698;28;20045;-61
2023/04/05 01:48:34;;;;;;;13.23;10.60;;;;;;;;;;5072570;28;20052;-60
2023/04/05 01:51:00;;;;;;;16.15;10.70;;;;;;;;;;5072507;28;20064;-61
2023/04/05 01:53:26;;;;;;;14.45;10.23;;;;;;;;;;5072346;28;20432;-60
2023/04/05 01:55:53;;;;;;;13.85;10.68;;;;;;;;;;5072618;28;20431;-60
2023/04/05 01:58:19;;;;;;;13.98;12.05;;;;;;;;;;5072453;28;20048;-60
2023/04/05 02:00:46;;;;;;;16.83;12.25;;;;;;;;;;5072560;28;20044;-60
2023/04/05 02:03:12;;;;;;;17.63;12.52;;;;;;;;;;5072547;28;20055;-60
2023/04/05 02:05:39;;;;;;;18.00;12.82;;;;;;;;;;5072085;28;20102;-60
2023/04/05 02:08:05;;;;;;;17.10;13.68;;;;;;;;;;5054645;28;20053;-60
2023/04/05 02:10:32;;;;;;;16.30;13.48;;;;;;;;;;5072240;28;20165;-61
2023/04/05 02:12:58;;;;;;;17.17;13.70;;;;;;;;;;5072352;28;20400;-60
2023/04/05 02:15:24;;;;;;;15.15;13.25;;;;;;;;;;5072064;28;20052;-60
2023/04/05 02:17:52;;;;;;;17.80;14.45;;;;;;;;;;5072216;28;20048;-60
2023/04/05 02:20:19;;;;;;;19.75;14.50;;;;;;;;;;5071462;28;20080;-60
2023/04/05 02:22:46;;;;;;;15.95;14.10;;;;;;;;;;5072110;28;20127;-60
2023/04/05 02:25:12;;;;;;;17.77;15.00;;;;;;;;;;5072257;28;20062;-60
2023/04/05 02:27:39;;;;;;;18.40;14.60;;;;;;;;;;5071695;28;20047;-61
2023/04/05 02:30:06;;;;;;;17.57;14.17;;;;;;;;;;5071898;28;20059;-60
2023/04/05 02:32:32;;;;;;;18.55;14.38;;;;;;;;;;5071688;28;20094;-60
2023/04/05 02:34:59;;;;;;;20.45;14.18;;;;;;;;;;5071725;28;20044;-60
2023/04/05 02:37:26;;;;;;;20.77;14.75;;;;;;;;;;5071731;28;20051;-60
2023/04/05 02:39:53;;;;;;;18.57;14.40;;;;;;;;;;5071931;28;20056;-60
2023/04/05 02:42:19;;;;;;;19.23;15.00;;;;;;;;;;5071723;28;20055;-60
2023/04/05 02:44:45;;;;;;;19.45;14.95;;;;;;;;;;5071680;28;20063;-60
2023/04/05 02:47:16;;;;;;;19.50;14.68;;;;;;;;;;5071566;28;20056;-60
2023/04/05 02:49:42;;;;;;;17.13;14.30;;;;;;;;;;5071834;28;20110;-60
2023/04/05 02:52:08;;;;;;;18.88;15.43;;;;;;;;;;5071758;28;20041;-60
2023/04/05 02:54:35;;;;;;;20.73;14.50;;;;;;;;;;5071701;28;20128;-60
2023/04/05 02:57:02;;;;;;;22.45;15.65;;;;;;;;;;5071764;28;20043;-60
2023/04/05 02:59:28;;;;;;;20.70;15.82;;;;;;;;;;5071317;28;20520;-60
2023/04/05 03:01:54;;;;;;;18.77;14.27;;;;;;;;;;5071393;28;20488;-60
2023/04/05 03:04:21;;;;;;;20.55;14.13;;;;;;;;;;5071426;28;20139;-60
2023/04/05 03:06:48;;;;;;;21.27;15.40;;;;;;;;;;5071343;28;20055;-60
2023/04/05 03:09:14;;;;;;;20.38;14.95;;;;;;;;;;5071415;28;20053;-60
2023/04/05 03:11:41;;;;;;;21.73;15.32;;;;;;;;;;5071479;28;20049;-60
2023/04/05 03:14:07;;;;;;;19.27;14.85;;;;;;;;;;5071638;28;20050;-60
2023/04/05 03:16:34;;;;;;;18.40;14.40;;;;;;;;;;5071662;28;20128;-60
2023/04/05 03:19:01;;;;;;;19.13;14.95;;;;;;;;;;5071256;28;20045;-60
2023/04/05 03:21:28;;;;;;;17.55;14.60;;;;;;;;;;5053784;28;20060;-60
2023/04/05 03:23:55;;;;;;;16.95;14.40;;;;;;;;;;5071378;28;20114;-60
2023/04/05 03:26:22;;;;;;;17.75;13.57;;;;;;;;;;5071274;28;20056;-60
2023/04/05 03:28:48;;;;;;;20.58;14.88;;;;;;;;;;5071435;28;20080;-60
2023/04/05 03:31:16;;;;;;;18.17;14.27;;;;;;;;;;5073867;28;20072;-60
2023/04/05 03:33:45;;;;;;;17.83;13.15;;;;;;;;;;5057740;28;20055;-61
2023/04/05 03:36:15;;;;;;;17.25;12.95;;;;;;;;;;5075051;28;20488;-60
2023/04/05 03:38:42;;;;;;;17.38;13.40;;;;;;;;;;5075410;28;20076;-60
2023/04/05 03:41:09;;;;;;;18.20;13.60;;;;;;;;;;5075048;28;20078;-60
2023/04/05 03:43:35;;;;;;;17.70;12.75;;;;;;;;;;5074912;28;20424;-60
2023/04/05 03:46:02;;;;;;;20.00;13.23;;;;;;;;;;5074808;28;20044;-60
2023/04/05 03:48:28;;;;;;;18.70;13.60;;;;;;;;;;5074790;28;20056;-61
2023/04/05 03:50:55;;;;;;;20.90;14.25;;;;;;;;;;5074682;28;20055;-60
2023/04/05 03:53:22;;;;;;;19.08;14.25;;;;;;;;;;5074794;28;20045;-60
2023/04/05 03:55:49;;;;;;;19.43;14.70;;;;;;;;;;5074821;28;20128;-60
2023/04/05 03:58:15;;;;;;;18.77;13.67;;;;;;;;;;5074564;28;20286;-60
2023/04/05 04:00:42;;;;;;;19.42;15.35;;;;;;;;;;5074483;28;20055;-60
2023/04/05 04:03:08;;;;;;;19.45;14.65;;;;;;;;;;5074905;28;20045;-60
2023/04/05 04:05:37;;;;;;;19.92;15.68;;;;;;;;;;5074750;28;20082;-60
2023/04/05 04:08:05;;;;;;;17.23;13.48;;;;;;;;;;5074607;28;20099;-60
2023/04/05 04:10:33;;;;;;;21.42;14.00;;;;;;;;;;5074406;28;20067;-60
2023/04/05 04:12:59;;;;;;;17.23;12.80;;;;;;;;;;5074339;28;20058;-60
2023/04/05 04:15:25;;;;;;;18.52;13.57;;;;;;;;;;5074596;28;20182;-60
2023/04/05 04:17:52;;;;;;;18.10;13.60;;;;;;;;;;5074627;28;20045;-60
2023/04/05 04:20:18;;;;;;;19.58;15.32;;;;;;;;;;5074332;28;20136;-60
2023/04/05 04:22:47;;;;;;;19.80;15.25;;;;;;;;;;5074529;28;20044;-60
2023/04/05 04:25:17;;;;;;;20.10;15.35;;;;;;;;;;5074476;28;20090;-60
2023/04/05 04:27:45;;;;;;;21.33;15.77;;;;;;;;;;5074508;28;20048;-60
2023/04/05 04:30:11;;;;;;;;;;;;;;;;;;5074714;28;20131;-60
2023/04/05 04:32:53;;;;;;;21.65;15.52;;;;;;;;;;5073872;28;20368;-60
2023/04/05 04:35:23;;;;;;;21.15;15.98;;;;;;;;;;5074003;28;20083;-60
2023/04/05 04:37:56;;;;;;;19.48;15.27;;;;;;;;;;5073852;28;20040;-60
2023/04/05 04:41:13;;;;;;;18.63;15.82;;;;;;;;;;5073943;28;20468;-60
2023/04/05 04:43:26;;;;;;;19.95;15.55;;;;;;;;;;5065080;28;20048;-60
2023/04/05 04:45:54;;;;;;;21.05;16.20;;;;;;;;;;5073769;28;20064;-60
2023/04/05 04:48:20;;;;;;;17.85;14.82;;;;;;;;;;5073678;28;20048;-60
2023/04/05 04:50:48;;;;;;;17.80;14.20;;;;;;;;;;5074298;28;20052;-60
2023/04/05 04:53:17;;;;;;;21.20;15.35;;;;;;;;;;5073750;28;20072;-60
2023/04/05 04:55:44;;;;;;;19.27;14.50;;;;;;;;;;5073620;28;20142;-60
2023/04/05 04:58:11;;;;;;;22.50;16.20;;;;;;;;;;5073798;28;20049;-60
2023/04/05 05:00:39;;;;;;;21.55;16.60;;;;;;;;;;5073376;28;20058;-60
2023/04/05 05:03:07;;;;;;;20.80;16.08;;;;;;;;;;5073575;28;20171;-60
2023/04/05 05:05:33;;;;;;;19.65;17.23;;;;;;;;;;5073398;28;20495;-60
2023/04/05 05:08:00;;;;;;;21.95;18.70;;;;;;;;;;5073447;28;20503;-60
2023/04/05 05:10:26;;;;;;;23.08;18.67;;;;;;;;;;5073814;28;20131;-60
2023/04/05 05:12:53;;;;;;;19.55;16.85;;;;;;;;;;5073310;28;20059;-60
2023/04/05 05:15:19;;;;;;;22.67;18.42;;;;;;;;;;5073248;28;20131;-60
2023/04/05 05:17:46;;;;;;;21.15;17.92;;;;;;;;;;5073182;28;20041;-60
2023/04/05 05:20:13;;;;;;;21.60;17.67;;;;;;;;;;5073153;28;20076;-60
2023/04/05 05:22:39;;;;;;;27.40;18.63;;;;;;;;;;5073596;28;20044;-60
2023/04/05 05:25:06;;;;;;;23.50;18.75;;;;;;;;;;5073038;28;20488;-60
2023/04/05 05:27:33;;;;;;;21.17;18.10;;;;;;;;;;5072845;28;20131;-60
2023/04/05 05:29:59;;;;;;;21.98;16.33;;;;;;;;;;5072893;28;20067;-60
2023/04/05 05:32:26;;;;;;;19.63;17.50;;;;;;;;;;5073057;28;20089;-60
2023/04/05 05:34:52;;;;;;;20.60;16.13;;;;;;;;;;5072905;28;20559;-60
2023/04/05 05:37:21;;;;;;;21.48;15.38;;;;;;;;;;5072716;28;20496;-60
2023/04/05 05:39:47;;;;;;;19.17;14.88;;;;;;;;;;5072729;28;20514;-60
2023/04/05 05:42:13;;;;;;;19.92;14.23;;;;;;;;;;5072724;28;20067;-60
2023/04/05 05:44:40;;;;;;;17.73;15.10;;;;;;;;;;5072544;28;20045;-61
2023/04/05 05:47:06;;;;;;;19.88;15.50;;;;;;;;;;5072750;28;20053;-61
2023/04/05 05:49:32;;;;;;;20.65;15.55;;;;;;;;;;5072557;28;20078;-61
2023/04/05 05:51:59;;;;;;;22.33;16.65;;;;;;;;;;5072655;28;20049;-61
2023/04/05 05:54:26;;;;;;;20.30;16.42;;;;;;;;;;5072743;28;20049;-61
2023/04/05 05:56:52;;;;;;;22.17;15.85;;;;;;;;;;5072361;28;20040;-61
2023/04/05 05:59:19;;;;;;;21.70;16.65;;;;;;;;;;5072312;28;20127;-61
2023/04/05 06:01:45;;;;;;;22.48;16.88;;;;;;;;;;5072427;28;20419;-61
2023/04/05 06:04:12;;;;;;;22.58;17.40;;;;;;;;;;5072553;28;20113;-61
2023/04/05 06:06:39;;;;;;;20.83;17.52;;;;;;;;;;5072136;28;20055;-61
2023/04/05 06:09:05;;;;;;;20.53;17.10;;;;;;;;;;5072244;28;20167;-61
2023/04/05 06:11:32;;;;;;;23.10;17.05;;;;;;;;;;5072016;28;20285;-61
2023/04/05 06:13:59;;;;;;;21.75;17.40;;;;;;;;;;5071989;28;20558;-61
2023/04/05 06:16:26;;;;;;;22.65;17.35;;;;;;;;;;5072043;28;20535;-61
2023/04/05 06:18:54;;;;;;;22.02;17.65;;;;;;;;;;5071898;28;20045;-61
2023/04/05 06:21:20;;;;;;;21.75;17.48;;;;;;;;;;5071923;28;20045;-61
2023/04/05 06:23:47;;;;;;;23.15;17.85;;;;;;;;;;5071797;28;20051;-60
2023/04/05 06:26:17;;;;;;;22.90;18.30;;;;;;;;;;5051679;28;20086;-62
2023/04/05 06:28:46;;;;;;;25.48;17.75;;;;;;;;;;5064160;28;20048;-61
2023/04/05 06:31:15;;;;;;;23.08;17.67;;;;;;;;;;5071519;28;20085;-61
2023/04/05 06:33:42;;;;;;;23.00;18.13;;;;;;;;;;5071292;28;20504;-61
2023/04/05 06:36:08;;;;;;;23.77;18.83;;;;;;;;;;5071773;28;20144;-61
2023/04/05 06:38:35;;;;;;;25.20;17.70;;;;;;;;;;5058570;28;20049;-61
2023/04/05 06:41:02;;;;;;;23.40;17.50;;;;;;;;;;5069006;28;20048;-61
2023/04/05 06:43:29;;;;;;;25.35;18.15;;;;;;;;;;5070815;28;20088;-61
2023/04/05 06:45:55;;;;;;;23.50;18.07;;;;;;;;;;5071458;28;20480;-61
2023/04/05 06:48:22;;;;;;;24.05;18.63;;;;;;;;;;5071541;28;20472;-61
2023/04/05 06:50:58;;;;;;;24.48;20.42;;;;;;;;;;5071279;28;20132;-61
2023/04/05 06:53:26;;;;;;;26.38;20.92;;;;;;;;;;5071487;28;20052;-61
2023/04/05 06:55:58;;;;;;;28.67;20.83;;;;;;;;;;5061232;28;20446;-61
2023/04/05 06:58:26;;;;;;;25.58;20.08;;;;;;;;;;5070549;28;20071;-61
2023/04/05 07:00:52;;;;;;;26.67;20.70;;;;;;;;;;5070800;28;20052;-61
2023/04/05 07:03:19;;;;;;;24.40;20.40;;;;;;;;;;5071473;28;20515;-61
2023/04/05 07:05:49;;;;;;;26.35;20.52;;;;;;;;;;5069689;28;20544;-61
2023/04/05 07:08:16;;;;;;;25.95;20.60;;;;;;;;;;5068839;28;20403;-61
2023/04/05 07:10:42;;;;;;;26.58;20.95;;;;;;;;;;5070250;28;20083;-61
2023/04/05 07:13:09;;;;;;;26.70;19.48;;;;;;;;;;5070091;28;20060;-61
2023/04/05 07:15:35;;;;;;;27.48;20.33;;;;;;;;;;5069885;28;20480;-61
2023/04/05 07:18:02;;;;;;;25.45;19.27;;;;;;;;;;5069841;28;20047;-61
2023/04/05 07:20:28;;;;;;;24.30;19.90;;;;;;;;;;5070021;28;20048;-61
2023/04/05 07:22:55;;;;;;;25.52;18.85;;;;;;;;;;5071189;28;20551;-61
2023/04/05 07:25:21;;;;;;;28.33;19.63;;;;;;;;;;5071259;28;20555;-61
2023/04/05 07:27:47;;;;;;;22.00;18.70;;;;;;;;;;5071421;28;20088;-61
2023/04/05 07:30:14;;;;;;;22.60;18.17;;;;;;;;;;5071545;28;20143;-61
2023/04/05 07:32:40;;;;;;;25.08;18.30;;;;;;;;;;5071231;28;20087;-61
2023/04/05 07:35:07;;;;;;;22.77;18.50;;;;;;;;;;5071408;28;20106;-61
2023/04/05 07:37:33;;;;;;;24.20;18.30;;;;;;;;;;5071138;28;20478;-61
2023/04/05 07:40:00;;;;;;;25.70;18.13;;;;;;;;;;5071362;28;20080;-61
2023/04/05 07:42:27;;;;;;;24.27;19.58;;;;;;;;;;5071246;28;20127;-61
2023/04/05 07:44:53;;;;;;;30.15;18.17;;;;;;;;;;5071103;28;20056;-61
2023/04/05 07:47:19;;;;;;;25.50;18.17;;;;;;;;;;5071095;28;20135;-61
2023/04/05 07:49:46;;;;;;;28.10;19.35;;;;;;;;;;5070998;28;20135;-61
2023/04/05 07:52:12;;;;;;;24.88;17.20;;;;;;;;;;5071271;28;20132;-61
2023/04/05 07:54:40;;;;;;;25.20;17.45;;;;;;;;;;5071252;28;20443;-61
2023/04/05 07:57:06;;;;;;;25.95;17.55;;;;;;;;;;5071266;28;20462;-61
2023/04/05 07:59:33;;;;;;;21.58;17.55;;;;;;;;;;5071042;28;20053;-61
2023/04/05 08:01:59;;;;;;;22.20;17.80;;;;;;;;;;5071049;28;20049;-61
2023/04/05 08:04:39;;;;;;;21.98;17.38;;;;;;;;;;5071217;28;20484;-61
2023/04/05 08:07:05;;;;;;;23.15;18.40;;;;;;;;;;5070935;28;20048;-61
2023/04/05 08:09:32;;;;;;;22.48;19.35;;;;;;;;;;5070985;28;20055;-61
2023/04/05 08:11:58;;;;;;;21.58;18.33;;;;;;;;;;5070928;28;20051;-61
2023/04/05 08:14:25;;;;;;;27.48;19.70;;;;;;;;;;5070823;28;20052;-61
2023/04/05 08:16:51;;;;;;;22.63;18.63;;;;;;;;;;5070992;28;20123;-61
2023/04/05 08:19:17;;;;;;;25.45;20.67;;;;;;;;;;5074537;28;20044;-61
2023/04/05 08:21:44;;;;;;;28.60;22.15;;;;;;;;;;5074250;28;20512;-61
2023/04/05 08:24:10;;;;;;;29.48;20.55;;;;;;;;;;5074422;28;20056;-61
2023/04/05 08:26:37;;;;;;;28.20;21.52;;;;;;;;;;5074421;28;20055;-61
2023/04/05 08:29:03;;;;;;;27.75;20.20;;;;;;;;;;5074390;28;20825;-61
2023/04/05 08:31:29;;;;;;;25.65;21.27;;;;;;;;;;5074288;28;20074;-61
2023/04/05 08:33:56;;;;;;;26.42;20.85;;;;;;;;;;5074197;28;20052;-61
2023/04/05 08:36:22;;;;;;;26.17;21.95;;;;;;;;;;5074038;28;20105;-61
2023/04/05 08:38:49;;;;;;;29.05;20.65;;;;;;;;;;5074285;28;20052;-61
2023/04/05 08:41:20;;;;;;;27.30;20.10;;;;;;;;;;5074212;28;20119;-61
2023/04/05 08:43:58;;;;;;;31.48;22.00;;;;;;;;;;5073826;28;20557;-61
2023/04/05 08:46:25;;;;;;;29.20;21.48;;;;;;;;;;5074037;28;20051;-61
2023/04/05 08:48:52;;;;;;;26.38;21.05;;;;;;;;;;5074084;28;20055;-61
2023/04/05 08:51:22;;;;;;;33.47;22.38;;;;;;;;;;5073737;28;20049;-61
2023/04/05 08:53:49;;;;;;;27.45;22.13;;;;;;;;;;5073559;28;20123;-61
2023/04/05 08:56:18;;;;;;;27.67;21.23;;;;;;;;;;5073675;28;20476;-61
2023/04/05 08:58:51;;;;;;;28.92;21.85;;;;;;;;;;5073670;28;20051;-61
2023/04/05 09:01:18;;;;;;;33.63;23.70;;;;;;;;;;5073881;28;20044;-61
2023/04/05 09:03:45;;;;;;;31.63;23.42;;;;;;;;;;5073775;28;20443;-61
2023/04/05 09:06:12;;;;;;;33.00;25.00;;;;;;;;;;5073472;28;20393;-61
2023/04/05 09:08:40;;;;;;;30.77;23.38;;;;;;;;;;5073627;28;20056;-61
2023/04/05 09:11:06;;;;;;;33.50;24.45;;;;;;;;;;5073676;28;20106;-61
2023/04/05 09:13:32;;;;;;;29.70;23.85;;;;;;;;;;5073370;28;20084;-61
2023/04/05 09:16:00;;;;;;;28.13;22.95;;;;;;;;;;5073459;28;20132;-61
2023/04/05 09:18:26;;;;;;;29.98;23.63;;;;;;;;;;5073277;28;20140;-61
2023/04/05 09:21:01;;;;;;;27.27;24.27;;;;;;;;;;5073053;28;20044;-61
2023/04/05 09:23:28;;;;;;;26.83;21.75;;;;;;;;;;5073147;28;20080;-61
2023/04/05 09:25:54;;;;;;;26.42;22.38;;;;;;;;;;5073236;28;20127;-61
2023/04/05 09:28:21;;;;;;;30.10;23.35;;;;;;;;;;5072956;28;20056;-61
2023/04/05 09:30:47;;;;;;;29.65;24.65;;;;;;;;;;5072834;28;20504;-61
2023/04/05 09:33:15;;;;;;;31.60;24.88;;;;;;;;;;5073163;28;20127;-61
2023/04/05 09:35:41;;;;;;;27.15;22.85;;;;;;;;;;5073015;28;20083;-61
2023/04/05 09:38:08;;;;;;;29.80;23.50;;;;;;;;;;5073119;28;20053;-61
2023/04/05 09:40:42;;;;;;;27.80;23.52;;;;;;;;;;5072983;28;20118;-61
2023/04/05 09:43:09;;;;;;;27.77;24.40;;;;;;;;;;5072961;28;20142;-61
2023/04/05 09:45:40;;;;;;;30.05;23.73;;;;;;;;;;5072807;28;20084;-61
2023/04/05 09:48:07;;;;;;;28.80;24.05;;;;;;;;;;5072541;28;20143;-61
2023/04/05 09:50:34;;;;;;;28.85;23.88;;;;;;;;;;5072506;28;20457;-61
2023/04/05 09:53:14;;;;;;;28.73;23.48;;;;;;;;;;5054968;28;20095;-61
2023/04/05 09:55:42;;;;;;;27.73;22.88;;;;;;;;;;5072445;28;20041;-61
2023/04/05 09:58:12;;;;;;;26.15;23.30;;;;;;;;;;5072464;28;20076;-61
2023/04/05 10:00:51;;;;;;;29.35;24.42;;;;;;;;;;5072342;28;20559;-61
2023/04/05 10:03:26;;;;;;;26.85;23.17;;;;;;;;;;5072344;28;20052;-61
2023/04/05 10:05:55;;;;;;;26.75;23.85;;;;;;;;;;5072453;28;20048;-61
2023/04/05 10:08:22;;;;;;;27.90;24.48;;;;;;;;;;5072252;28;20118;-62
2023/04/05 10:10:52;;;;;;;28.38;24.15;;;;;;;;;;5072490;28;20184;-61
2023/04/05 10:13:19;;;;;;;29.42;23.45;;;;;;;;;;5071973;28;20045;-61
2023/04/05 10:15:47;;;;;;;27.88;24.38;;;;;;;;;;5072333;28;20450;-61
2023/04/05 10:18:17;;;;;;;30.38;26.83;;;;;;;;;;5071985;28;20048;-61
2023/04/05 10:20:46;;;;;;;30.48;26.00;;;;;;;;;;5072034;28;20502;-61
2023/04/05 10:23:16;;;;;;;32.15;27.02;;;;;;;;;;5072098;28;20470;-61
2023/04/05 10:25:48;;;;;;;32.05;27.15;;;;;;;;;;5071852;28;20052;-61
2023/04/05 10:28:27;;;;;;;34.20;27.48;;;;;;;;;;5072223;28;20088;-61
2023/04/05 10:31:16;;;;;;;28.77;25.77;;;;;;;;;;5072067;28;20048;-61
2023/04/05 10:34:02;;;;;;;30.42;26.08;;;;;;;;;;5071676;28;20056;-61
2023/04/05 10:36:38;;;;;;;32.38;27.23;;;;;;;;;;5071783;28;20044;-61
2023/04/05 10:39:05;;;;;;;27.75;23.10;;;;;;;;;;5071888;28;20124;-61
2023/04/05 10:41:39;;;;;;;32.50;25.48;;;;;;;;;;5071361;28;20048;-61
2023/04/05 10:44:08;;;;;;;29.98;25.42;;;;;;;;;;5071670;28;20101;-61
2023/04/05 10:46:52;;;;;;;29.63;26.02;;;;;;;;;;5071639;28;20079;-61
2023/04/05 10:49:30;;;;;;;27.38;23.20;;;;;;;;;;5071915;28;20056;-61
2023/04/05 10:51:57;;;;;;;27.63;24.40;;;;;;;;;;5071549;28;20404;-61
2023/04/05 10:54:24;;;;;;;24.35;21.80;;;;;;;;;;5071883;28;20041;-61
2023/04/05 10:56:50;;;;;;;27.63;22.75;;;;;;;;;;5071480;28;20057;-61
2023/04/05 10:59:17;;;;;;;23.95;21.45;;;;;;;;;;5071358;28;20476;-61
2023/04/05 11:01:44;;;;;;;24.55;21.52;;;;;;;;;;5071452;28;20128;-61
2023/04/05 11:04:12;;;;;;;24.20;21.75;;;;;;;;;;5071526;28;20044;-61
2023/04/05 11:06:38;;;;;;;26.13;21.83;;;;;;;;;;5071566;28;20060;-61
2023/04/05 11:09:14;;;;;;;24.35;21.67;;;;;;;;;;5071492;28;20157;-61
2023/04/05 11:11:41;;;;;;;23.90;21.35;;;;;;;;;;5071386;28;20087;-61
2023/04/05 11:14:18;;;;;;;24.98;22.42;;;;;;;;;;5071641;28;20103;-61
2023/04/05 11:16:46;;;;;;;25.60;22.90;;;;;;;;;;5071558;28;20057;-61
2023/04/05 11:19:12;;;;;;;;;;;;;;;;;;5072007;28;20049;-61
2023/04/05 11:21:39;;;;;;;23.17;20.75;;;;;;;;;;5071728;28;20355;-61
2023/04/05 11:24:10;;;;;;;24.75;21.15;;;;;;;;;;5071226;28;20099;-61
2023/04/05 11:26:37;;;;;;;23.63;21.10;;;;;;;;;;5071173;28;20474;-61
2023/04/05 11:29:03;;;;;;;21.20;18.90;;;;;;;;;;5071501;28;20407;-61
2023/04/05 11:31:29;;;;;;;23.15;18.50;;;;;;;;;;5071389;28;20127;-61
2023/04/05 11:33:58;;;;;;;21.20;18.88;;;;;;;;;;5071332;28;20098;-61
2023/04/05 11:36:47;;;;;;;19.20;17.30;;;;;;;;;;5071210;28;20064;-61
2023/04/05 11:39:22;;;;;;;21.30;18.27;;;;;;;;;;5071114;28;20499;-61
2023/04/05 11:41:53;;;;;;;22.33;18.35;;;;;;;;;;5071172;28;20485;-61
2023/04/05 11:44:20;;;;;;;21.92;19.63;;;;;;;;;;5071045;28;20492;-61
2023/04/05 11:46:47;;;;;;;27.33;22.20;;;;;;;;;;5071078;28;20131;-61
2023/04/05 11:49:13;;;;;;;24.65;22.17;;;;;;;;;;5071066;28;20048;-61
2023/04/05 11:51:42;;;;;;;25.27;20.67;;;;;;;;;;5072477;28;20523;-61
2023/04/05 11:54:09;;;;;;;24.92;21.08;;;;;;;;;;5074690;28;20131;-61
2023/04/05 11:56:36;;;;;;;25.50;22.55;;;;;;;;;;5074664;28;20102;-61
2023/04/05 11:59:03;;;;;;;26.90;23.60;;;;;;;;;;5074712;28;20750;-61
2023/04/05 12:01:29;;;;;;;26.15;23.50;;;;;;;;;;5074679;28;20054;-61
2023/04/05 12:03:56;;;;;;;27.88;24.55;;;;;;;;;;5074547;28;20055;-61
2023/04/05 12:06:23;;;;;;;29.27;22.83;;;;;;;;;;5074744;28;20055;-61
2023/04/05 12:08:50;;;;;;;28.27;23.88;;;;;;;;;;5075081;28;20048;-61
2023/04/05 12:11:23;;;;;;;25.73;22.02;;;;;;;;;;5074470;28;20049;-61
2023/04/05 12:13:53;;;;;;;24.15;21.52;;;;;;;;;;5074385;28;20124;-61
2023/04/05 12:16:20;;;;;;;24.80;22.20;;;;;;;;;;5074401;28;20566;-61
2023/04/05 12:18:52;;;;;;;27.52;22.80;;;;;;;;;;5074263;28;20044;-61
2023/04/05 12:21:18;;;;;;;28.85;23.35;;;;;;;;;;5074408;28;20076;-61
2023/04/05 12:23:45;;;;;;;25.67;21.95;;;;;;;;;;5074208;28;20468;-61
2023/04/05 12:26:12;;;;;;;25.02;22.27;;;;;;;;;;5074472;28;20095;-61
2023/04/05 12:28:54;;;;;;;26.13;22.92;;;;;;;;;;5074151;28;20083;-61
2023/04/05 12:31:37;;;;;;;25.90;21.75;;;;;;;;;;5074307;28;20103;-61
2023/04/05 12:34:04;;;;;;;25.65;22.90;;;;;;;;;;5074146;28;20133;-61
2023/04/05 12:36:31;;;;;;;26.15;21.58;;;;;;;;;;5074397;28;20090;-61
2023/04/05 12:38:58;;;;;;;23.80;21.27;;;;;;;;;;5074367;28;20044;-61
2023/04/05 12:41:30;;;;;;;26.43;22.90;;;;;;;;;;5073940;28;20045;-61
2023/04/05 12:44:00;;;;;;;24.95;20.77;;;;;;;;;;5074165;28;20103;-61
2023/04/05 12:46:43;;;;;;;25.13;21.98;;;;;;;;;;5074107;28;20083;-61
2023/04/05 12:49:16;;;;;;;27.05;23.38;;;;;;;;;;5073946;28;20079;-62
2023/04/05 12:51:46;;;;;;;31.55;24.45;;;;;;;;;;5073986;28;20041;-61
2023/04/05 12:54:13;;;;;;;27.85;23.75;;;;;;;;;;5073836;28;20080;-61
2023/04/05 12:56:42;;;;;;;26.07;22.17;;;;;;;;;;5073766;28;20048;-61
2023/04/05 12:59:09;;;;;;;26.40;22.92;;;;;;;;;;5073632;28;20087;-61
2023/04/05 13:01:36;;;;;;;31.85;25.27;;;;;;;;;;5073614;28;20054;-61
2023/04/05 13:04:05;;;;;;;24.63;21.90;;;;;;;;;;5072908;28;20538;-61
2023/04/05 13:06:41;;;;;;;27.15;24.08;;;;;;;;;;5073664;28;20052;-61
2023/04/05 13:09:09;;;;;;;29.88;24.15;;;;;;;;;;5073517;28;20519;-61
2023/04/05 13:11:36;;;;;;;26.73;23.00;;;;;;;;;;5073433;28;20049;-61
2023/04/05 13:14:02;;;;;;;28.00;23.77;;;;;;;;;;5073189;28;20516;-61
2023/04/05 13:16:29;;;;;;;29.67;24.55;;;;;;;;;;5055576;28;20190;-61
2023/04/05 13:18:55;;;;;;;26.67;22.30;;;;;;;;;;5073088;28;20055;-61
2023/04/05 13:21:22;;;;;;;27.52;22.30;;;;;;;;;;5073187;28;20045;-61
2023/04/05 13:23:48;;;;;;;24.23;20.30;;;;;;;;;;5073102;28;20523;-61
2023/04/05 13:26:15;;;;;;;26.05;21.40;;;;;;;;;;5073032;28;20052;-61
2023/04/05 13:28:41;;;;;;;24.23;21.63;;;;;;;;;;5073036;28;20060;-61
2023/04/05 13:31:07;;;;;;;22.95;20.25;;;;;;;;;;5072925;28;20491;-61
2023/04/05 13:33:34;;;;;;;22.33;19.85;;;;;;;;;;5072898;28;20091;-61
2023/04/05 13:36:00;;;;;;;22.20;19.80;;;;;;;;;;5072883;28;20084;-61
2023/04/05 13:38:27;;;;;;;21.08;18.88;;;;;;;;;;5073012;28;20102;-61
2023/04/05 13:40:54;;;;;;;21.85;18.73;;;;;;;;;;5072746;28;20048;-61
2023/04/05 13:43:20;;;;;;;20.60;18.15;;;;;;;;;;5073052;28;20119;-61
2023/04/05 13:45:47;;;;;;;20.15;17.83;;;;;;;;;;5072873;28;20048;-61
2023/04/05 13:48:13;;;;;;;18.50;16.52;;;;;;;;;;5072890;28;20101;-61
2023/04/05 13:50:39;;;;;;;17.95;16.15;;;;;;;;;;5072768;28;20135;-61
2023/04/05 13:53:06;;;;;;;19.33;15.73;;;;;;;;;;5072673;28;20123;-61
2023/04/05 13:55:33;;;;;;;16.50;14.73;;;;;;;;;;5072370;28;20381;-61
2023/04/05 13:57:59;;;;;;;16.48;14.68;;;;;;;;;;5072464;28;20084;-61
2023/04/05 14:00:25;;;;;;;16.88;15.18;;;;;;;;;;5072106;28;20048;-61
2023/04/05 14:02:52;;;;;;;16.92;15.23;;;;;;;;;;5072628;28;20048;-61
2023/04/05 14:05:18;;;;;;;18.15;16.25;;;;;;;;;;5072208;28;20489;-61
2023/04/05 14:07:45;;;;;;;18.55;16.65;;;;;;;;;;5072534;28;20143;-61
2023/04/05 14:10:11;;;;;;;18.53;16.50;;;;;;;;;;5072462;28;20056;-61
2023/04/05 14:12:38;;;;;;;18.50;16.50;;;;;;;;;;5072260;28;20076;-61
2023/04/05 14:15:05;;;;;;;18.40;16.60;;;;;;;;;;5071403;28;20445;-61
2023/04/05 14:17:31;;;;;;;19.08;17.13;;;;;;;;;;5072276;28;20051;-61
2023/04/05 14:19:57;;;;;;;21.20;18.02;;;;;;;;;;5072399;28;20078;-61
2023/04/05 14:22:24;;;;;;;22.10;19.75;;;;;;;;;;5072247;28;20131;-61
2023/04/05 14:24:51;;;;;;;22.40;19.83;;;;;;;;;;5072057;28;20483;-61